Baton Rouge — 2CZZ7 — position and weather

sailwx.info

Track history (hours):
 
Tides and Currents Weather Stations Pressure Air Temp Water Temp Dewpoint Dewpoint Depression Visibility Wind Speed Wind Dir Waves Ship Positions

Baton Rouge

Last reported at 2016-Jul-26 21:33 UTC. Time now 2016-Jul-26 21:54 UTC.
Position N 42°57' E 006°26'.

Length 62 m; draft 3.7 m.

Type: Pleasure craft. MMSI: 235077185.

Date/timePositionNaut miles runAvg speedWind from/ knotsBaromVisibWave heightAir tempDewpointWater temp
2016-Jul-26 21:33N 42°57' E 006°26'  
2016-Jul-23 02:08N 42°53' E 007°16'712.5
2016-Jul-23 01:33N 42°49' E 007°24'1312.8
2016-Jul-23 00:33N 42°40' E 007°37'70 2.1
2016-Jul-21 15:04N 42°44' E 009°12'0 0.0
2016-Jul-21 14:16N 42°44' E 009°12'0 0.0
2016-Jul-21 13:10N 42°44' E 009°12'5 0.6
2016-Jul-21 05:28N 42°49' E 009°12'1111.6
2016-Jul-21 04:33N 42°59' E 009°13'1312.8
2016-Jul-21 03:33N 43°12' E 009°13'1312.6
2016-Jul-21 02:33N 43°25' E 009°13'1212.5
2016-Jul-21 01:34N 43°37' E 009°13'1312.6
2016-Jul-21 00:33N 43°50' E 009°13'1312.9
2016-Jul-20 23:33N 44°03' E 009°14'1313.0
2016-Jul-20 22:33N 44°16' E 009°14'4 3.6
2016-Jul-20 21:32N 44°19' E 009°13'0 0.0
2016-Jul-20 20:14N 44°19' E 009°13'0 0.0
2016-Jul-20 19:17N 44°19' E 009°13'0 0.0
2016-Jul-20 15:14N 44°19' E 009°13'0 0.0
2016-Jul-20 14:11N 44°19' E 009°13'1 0.0
2016-Jul-19 19:16N 44°18' E 009°13'0 0.5
2016-Jul-19 18:33N 44°18' E 009°13'1110.9
2016-Jul-19 17:33N 44°13' E 009°26'9 1.2
2016-Jul-19 10:16N 44°09' E 009°37'0 0.0
2016-Jul-19 07:28N 44°09' E 009°37'26 8.8
2016-Jul-19 04:33N 43°58' E 010°09'0 0.0
2016-Jul-19 03:33N 43°58' E 010°09'0 0.0
2016-Jul-19 02:33N 43°58' E 010°09'0 0.0
2016-Jul-19 01:33N 43°58' E 010°09'0 0.0
2016-Jul-19 00:33N 43°58' E 010°09'0 0.0
2016-Jul-18 23:33N 43°58' E 010°09'0 0.0
2016-Jul-18 22:33N 43°58' E 010°09'0 0.0
2016-Jul-18 21:33N 43°58' E 010°09'0 0.0
2016-Jul-18 20:33N 43°58' E 010°09'0 0.2
2016-Jul-18 19:33N 43°58' E 010°09'1313.0
2016-Jul-18 18:33N 43°45' E 010°07'1313.3
2016-Jul-18 17:33N 43°31' E 010°06'9 8.5
2016-Jul-18 16:32N 43°33' E 010°18'0 0.0
2016-Jul-18 15:32N 43°33' E 010°18'0 0.0
2016-Jul-18 14:32N 43°33' E 010°18'0 0.0
2016-Jul-18 13:32N 43°33' E 010°18'0 0.0
2016-Jul-18 12:29N 43°33' E 010°18'0 0.0
2016-Jul-18 11:32N 43°33' E 010°18'0 0.0
2016-Jul-18 10:32N 43°33' E 010°18'0 0.0
2016-Jul-18 09:32N 43°33' E 010°18'0 0.0
2016-Jul-18 08:23N 43°33' E 010°18'0 0.0
2016-Jul-18 07:29N 43°33' E 010°18'0 0.0
2016-Jul-18 06:20N 43°33' E 010°18'0 0.0
2016-Jul-18 05:32N 43°33' E 010°18'0 0.0
2016-Jul-18 04:32N 43°33' E 010°18'0 0.0
2016-Jul-18 03:32N 43°33' E 010°18'0 0.0
2016-Jul-18 02:26N 43°33' E 010°18'0 0.0
2016-Jul-18 01:26N 43°33' E 010°18'0 0.0
2016-Jul-18 00:14N 43°33' E 010°18'0 0.0
2016-Jul-17 23:32N 43°33' E 010°18'0 0.0
2016-Jul-17 22:32N 43°33' E 010°18'0 0.0
2016-Jul-17 21:32N 43°33' E 010°18'0 0.0
2016-Jul-17 20:32N 43°33' E 010°18'0 0.0
2016-Jul-17 19:32N 43°33' E 010°18'0 0.0
2016-Jul-17 18:32N 43°33' E 010°18'0 0.0
2016-Jul-17 17:32N 43°33' E 010°18'0 0.0
2016-Jul-17 16:32N 43°33' E 010°18'0 0.0
2016-Jul-17 15:32N 43°33' E 010°18'0 0.0
2016-Jul-17 14:32N 43°33' E 010°18'0 0.0
2016-Jul-17 13:32N 43°33' E 010°18'0 0.0
2016-Jul-17 12:32N 43°33' E 010°18'0 0.0
2016-Jul-17 11:32N 43°33' E 010°18'0 0.0
2016-Jul-17 10:32N 43°33' E 010°18'0 0.0
2016-Jul-17 09:26N 43°33' E 010°18'0 0.0
2016-Jul-17 08:32N 43°33' E 010°18'0 0.0
2016-Jul-17 07:23N 43°33' E 010°18'0 0.0
2016-Jul-17 06:29N 43°33' E 010°18'0 0.0
2016-Jul-17 04:32N 43°33' E 010°18'0 0.0
2016-Jul-17 03:29N 43°33' E 010°18'0 0.0
2016-Jul-17 02:32N 43°33' E 010°18'0 0.0
2016-Jul-17 01:29N 43°33' E 010°18'0 0.0
2016-Jul-17 00:32N 43°33' E 010°18'0 0.0
2016-Jul-16 23:29N 43°33' E 010°18'0 0.0
2016-Jul-16 22:32N 43°33' E 010°18'  
Track history (hours):
 
Tides and Currents Weather Stations Pressure Air Temp Water Temp Dewpoint Dewpoint Depression Visibility Wind Speed Wind Dir Waves Ship Positions

Baton Rouge

Last reported at 2016-Jul-26 21:33 UTC. Time now 2016-Jul-26 21:54 UTC.
Position N 42°57' E 006°26'.

Length 62 m; draft 3.7 m.

Type: Pleasure craft. MMSI: 235077185.

Date/timePositionNaut miles runAvg speedWind from/ knotsBaromVisibWave heightAir tempDewpointWater temp
2016-Jul-26 21:33N 42°57' E 006°26'  
2016-Jul-23 02:08N 42°53' E 007°16'712.5
2016-Jul-23 01:33N 42°49' E 007°24'1312.8
2016-Jul-23 00:33N 42°40' E 007°37'70 2.1
2016-Jul-21 15:04N 42°44' E 009°12'0 0.0
2016-Jul-21 14:16N 42°44' E 009°12'0 0.0
2016-Jul-21 13:10N 42°44' E 009°12'5 0.6
2016-Jul-21 05:28N 42°49' E 009°12'1111.6
2016-Jul-21 04:33N 42°59' E 009°13'1312.8
2016-Jul-21 03:33N 43°12' E 009°13'1312.6
2016-Jul-21 02:33N 43°25' E 009°13'1212.5
2016-Jul-21 01:34N 43°37' E 009°13'1312.6
2016-Jul-21 00:33N 43°50' E 009°13'1312.9
2016-Jul-20 23:33N 44°03' E 009°14'1313.0
2016-Jul-20 22:33N 44°16' E 009°14'4 3.6
2016-Jul-20 21:32N 44°19' E 009°13'0 0.0
2016-Jul-20 20:14N 44°19' E 009°13'0 0.0
2016-Jul-20 19:17N 44°19' E 009°13'0 0.0
2016-Jul-20 15:14N 44°19' E 009°13'0 0.0
2016-Jul-20 14:11N 44°19' E 009°13'1 0.0
2016-Jul-19 19:16N 44°18' E 009°13'0 0.5
2016-Jul-19 18:33N 44°18' E 009°13'1110.9
2016-Jul-19 17:33N 44°13' E 009°26'9 1.2
2016-Jul-19 10:16N 44°09' E 009°37'0 0.0
2016-Jul-19 07:28N 44°09' E 009°37'26 8.8
2016-Jul-19 04:33N 43°58' E 010°09'0 0.0
2016-Jul-19 03:33N 43°58' E 010°09'0 0.0
2016-Jul-19 02:33N 43°58' E 010°09'0 0.0
2016-Jul-19 01:33N 43°58' E 010°09'0 0.0
2016-Jul-19 00:33N 43°58' E 010°09'0 0.0
2016-Jul-18 23:33N 43°58' E 010°09'0 0.0
2016-Jul-18 22:33N 43°58' E 010°09'0 0.0
2016-Jul-18 21:33N 43°58' E 010°09'0 0.0
2016-Jul-18 20:33N 43°58' E 010°09'0 0.2
2016-Jul-18 19:33N 43°58' E 010°09'1313.0
2016-Jul-18 18:33N 43°45' E 010°07'1313.3
2016-Jul-18 17:33N 43°31' E 010°06'9 8.5
2016-Jul-18 16:32N 43°33' E 010°18'0 0.0
2016-Jul-18 15:32N 43°33' E 010°18'0 0.0
2016-Jul-18 14:32N 43°33' E 010°18'0 0.0
2016-Jul-18 13:32N 43°33' E 010°18'0 0.0
2016-Jul-18 12:29N 43°33' E 010°18'0 0.0
2016-Jul-18 11:32N 43°33' E 010°18'0 0.0
2016-Jul-18 10:32N 43°33' E 010°18'0 0.0
2016-Jul-18 09:32N 43°33' E 010°18'0 0.0
2016-Jul-18 08:23N 43°33' E 010°18'0 0.0
2016-Jul-18 07:29N 43°33' E 010°18'0 0.0
2016-Jul-18 06:20N 43°33' E 010°18'0 0.0
2016-Jul-18 05:32N 43°33' E 010°18'0 0.0
2016-Jul-18 04:32N 43°33' E 010°18'0 0.0
2016-Jul-18 03:32N 43°33' E 010°18'0 0.0
2016-Jul-18 02:26N 43°33' E 010°18'0 0.0
2016-Jul-18 01:26N 43°33' E 010°18'0 0.0
2016-Jul-18 00:14N 43°33' E 010°18'0 0.0
2016-Jul-17 23:32N 43°33' E 010°18'0 0.0
2016-Jul-17 22:32N 43°33' E 010°18'0 0.0
2016-Jul-17 21:32N 43°33' E 010°18'0 0.0
2016-Jul-17 20:32N 43°33' E 010°18'0 0.0
2016-Jul-17 19:32N 43°33' E 010°18'0 0.0
2016-Jul-17 18:32N 43°33' E 010°18'0 0.0
2016-Jul-17 17:32N 43°33' E 010°18'0 0.0
2016-Jul-17 16:32N 43°33' E 010°18'0 0.0
2016-Jul-17 15:32N 43°33' E 010°18'0 0.0
2016-Jul-17 14:32N 43°33' E 010°18'0 0.0
2016-Jul-17 13:32N 43°33' E 010°18'0 0.0
2016-Jul-17 12:32N 43°33' E 010°18'0 0.0
2016-Jul-17 11:32N 43°33' E 010°18'0 0.0
2016-Jul-17 10:32N 43°33' E 010°18'0 0.0
2016-Jul-17 09:26N 43°33' E 010°18'0 0.0
2016-Jul-17 08:32N 43°33' E 010°18'0 0.0
2016-Jul-17 07:23N 43°33' E 010°18'0 0.0
2016-Jul-17 06:29N 43°33' E 010°18'0 0.0
2016-Jul-17 04:32N 43°33' E 010°18'0 0.0
2016-Jul-17 03:29N 43°33' E 010°18'0 0.0
2016-Jul-17 02:32N 43°33' E 010°18'0 0.0
2016-Jul-17 01:29N 43°33' E 010°18'0 0.0
2016-Jul-17 00:32N 43°33' E 010°18'0 0.0
2016-Jul-16 23:29N 43°33' E 010°18'0 0.0
2016-Jul-16 22:32N 43°33' E 010°18'  

Dump ship's entire track history